createdAt,value
2018-09-26T00:00:03.469Z,7.33
2018-09-26T00:01:13.719Z,7.34
2018-09-26T00:02:23.582Z,7.39
2018-09-26T00:03:33.731Z,7.4
2018-09-26T00:04:43.861Z,7.34
2018-09-26T00:05:53.745Z,7.48
2018-09-26T00:07:03.881Z,7.41
2018-09-26T00:08:14.079Z,7.41
2018-09-26T00:09:24.309Z,7.39
2018-09-26T00:10:34.493Z,7.37
2018-09-26T00:11:44.891Z,7.43
2018-09-26T00:12:54.897Z,7.37
2018-09-26T00:14:05.123Z,7.31
2018-09-26T00:15:15.392Z,7.37
2018-09-26T00:16:25.589Z,7.44
2018-09-26T00:17:35.773Z,7.47
2018-09-26T00:18:46.014Z,7.44
2018-09-26T00:19:56.245Z,7.48
2018-09-26T00:21:06.644Z,7.58
2018-09-26T00:22:16.754Z,7.56
2018-09-26T00:23:26.954Z,7.58
2018-09-26T00:24:37.174Z,7.55
2018-09-26T00:25:47.305Z,7.58
2018-09-26T00:26:57.199Z,7.66
2018-09-26T00:28:07.327Z,7.58
2018-09-26T00:29:17.981Z,7.59
2018-09-26T00:30:28.144Z,7.55
2018-09-26T00:31:38.547Z,7.52
2018-09-26T00:32:49.056Z,7.51
2018-09-26T00:33:59.186Z,7.48
2018-09-26T00:35:09.055Z,7.41
2018-09-26T00:36:19.683Z,7.39
2018-09-26T00:37:30.028Z,7.26
2018-09-26T00:38:40.081Z,7.21
2018-09-26T00:39:50.215Z,7.14
2018-09-26T00:41:00.325Z,7.13
2018-09-26T00:42:10.498Z,7.13
2018-09-26T00:43:20.395Z,7.02
2018-09-26T00:44:30.540Z,6.99
2018-09-26T00:45:40.663Z,7.06
2018-09-26T00:46:50.827Z,6.97
2018-09-26T00:48:00.977Z,7
2018-09-26T00:49:11.169Z,6.95
2018-09-26T00:50:21.347Z,6.9
2018-09-26T00:51:31.294Z,6.93
2018-09-26T00:52:41.149Z,6.92
2018-09-26T00:53:51.270Z,6.93
2018-09-26T00:55:01.425Z,6.89
2018-09-26T00:56:11.715Z,6.99
2018-09-26T00:57:22.837Z,6.93
2018-09-26T00:58:32.985Z,6.96
2018-09-26T00:59:43.233Z,6.99
2018-09-26T01:00:53.428Z,6.96
2018-09-26T01:02:03.952Z,6.93
2018-09-26T01:03:14.061Z,6.95
2018-09-26T01:04:24.200Z,6.9
2018-09-26T01:05:34.088Z,6.93
2018-09-26T01:06:44.270Z,6.92
2018-09-26T01:07:54.498Z,6.92
2018-09-26T01:09:04.626Z,6.95
2018-09-26T01:10:14.845Z,6.97
2018-09-26T01:11:25.091Z,6.93
2018-09-26T01:12:35.305Z,6.96
2018-09-26T01:13:45.483Z,7
2018-09-26T01:14:55.338Z,7
2018-09-26T01:16:05.489Z,7.08
2018-09-26T01:17:15.368Z,7
2018-09-26T01:18:25.502Z,6.99
2018-09-26T01:19:35.821Z,7
2018-09-26T01:20:45.974Z,7.05
2018-09-26T01:21:56.151Z,7.08
2018-09-26T01:23:06.318Z,7.11
2018-09-26T01:24:16.580Z,7.17
2018-09-26T01:25:26.850Z,7.1
2018-09-26T01:26:37.173Z,7.02
2018-09-26T01:27:47.321Z,7.02
2018-09-26T01:28:57.508Z,6.99
2018-09-26T01:30:07.652Z,7.02
2018-09-26T01:31:17.831Z,7.03
2018-09-26T01:32:27.741Z,7.13
2018-09-26T01:33:37.344Z,7.03
2018-09-26T01:34:48.634Z,6.97
2018-09-26T01:35:58.809Z,7.1
2018-09-26T01:37:08.986Z,7
2018-09-26T01:38:19.217Z,7
2018-09-26T01:39:29.456Z,7.02
2018-09-26T01:40:39.614Z,6.93
2018-09-26T01:41:49.850Z,6.93
2018-09-26T01:42:59.469Z,6.99
2018-09-26T01:44:09.861Z,7.05
2018-09-26T01:45:19.975Z,6.99
2018-09-26T01:46:30.203Z,7
2018-09-26T01:47:40.377Z,7.06
2018-09-26T01:48:50.513Z,7
2018-09-26T01:50:00.888Z,7.02
2018-09-26T01:51:11.077Z,6.99
2018-09-26T01:52:21.034Z,7.03
2018-09-26T01:53:30.940Z,7
2018-09-26T01:54:41.084Z,7.02
2018-09-26T01:55:51.200Z,6.99
2018-09-26T01:57:01.319Z,6.97
2018-09-26T01:58:11.174Z,7.02
2018-09-26T01:59:21.303Z,6.99
2018-09-26T02:00:31.458Z,6.97
2018-09-26T02:01:41.675Z,6.99
2018-09-26T02:02:51.812Z,6.9
2018-09-26T02:04:01.913Z,6.87
2018-09-26T02:05:12.304Z,6.89
2018-09-26T02:06:22.505Z,6.92
2018-09-26T02:07:32.668Z,6.93
2018-09-26T02:08:42.779Z,6.9
2018-09-26T02:09:52.914Z,6.9
2018-09-26T02:11:03.034Z,6.89
2018-09-26T02:12:13.199Z,6.84
2018-09-26T02:13:23.375Z,6.85
2018-09-26T02:14:33.507Z,6.85
2018-09-26T02:15:43.752Z,6.87
2018-09-26T02:16:54.132Z,6.87
2018-09-26T02:18:04.312Z,6.92
2018-09-26T02:19:14.502Z,6.9
2018-09-26T02:20:24.713Z,6.99
2018-09-26T02:21:34.865Z,7
2018-09-26T02:22:44.969Z,7.03
2018-09-26T02:23:55.237Z,7.11
2018-09-26T02:25:05.557Z,7.11
2018-09-26T02:26:15.897Z,7.14
2018-09-26T02:27:26.053Z,7.05
2018-09-26T02:28:36.263Z,7
2018-09-26T02:29:46.439Z,7.05
2018-09-26T02:30:56.635Z,6.9
2018-09-26T02:32:06.798Z,6.92
2018-09-26T02:33:16.954Z,6.9
2018-09-26T02:34:27.087Z,6.92
2018-09-26T02:35:37.207Z,6.9
2018-09-26T02:36:46.706Z,6.97
2018-09-26T02:37:56.652Z,6.92
2018-09-26T02:39:06.816Z,6.9
2018-09-26T02:40:17.072Z,6.92
2018-09-26T02:41:27.219Z,6.93
2018-09-26T02:42:37.496Z,6.95
2018-09-26T02:43:47.348Z,6.9
2018-09-26T02:44:57.687Z,6.95
2018-09-26T02:46:07.842Z,6.95
2018-09-26T02:47:17.806Z,6.95
2018-09-26T02:48:27.865Z,6.99
2018-09-26T02:49:38.028Z,7
2018-09-26T02:50:48.170Z,7.06
2018-09-26T02:51:58.354Z,6.99
2018-09-26T02:53:08.491Z,7.02
2018-09-26T02:54:18.659Z,6.93
2018-09-26T02:55:28.565Z,6.93
2018-09-26T02:56:38.740Z,6.9
2018-09-26T02:57:49.073Z,6.92
2018-09-26T02:58:59.157Z,6.82
2018-09-26T03:00:09.424Z,6.79
2018-09-26T03:01:19.549Z,6.79
2018-09-26T03:02:29.990Z,6.84
2018-09-26T03:03:39.735Z,6.93
2018-09-26T03:04:49.842Z,6.9
2018-09-26T03:06:00.065Z,6.93
2018-09-26T03:07:10.282Z,6.99
2018-09-26T03:08:20.636Z,6.96
2018-09-26T03:09:30.775Z,6.99
2018-09-26T03:10:40.968Z,7.03
2018-09-26T03:11:51.172Z,6.99
2018-09-26T03:13:01.392Z,6.97
2018-09-26T03:14:11.691Z,6.96
2018-09-26T03:15:21.829Z,6.93
2018-09-26T03:16:32.061Z,6.99
2018-09-26T03:17:42.444Z,6.96
2018-09-26T03:18:52.507Z,7
2018-09-26T03:20:02.769Z,7
2018-09-26T03:21:12.895Z,7.06
2018-09-26T03:22:23.197Z,7.06
2018-09-26T03:23:33.327Z,6.97
2018-09-26T03:24:43.589Z,7.02
2018-09-26T03:25:53.790Z,7.03
2018-09-26T03:27:04.032Z,7
2018-09-26T03:28:14.180Z,7.08
2018-09-26T03:29:24.352Z,7.14
2018-09-26T03:30:34.477Z,7.06
2018-09-26T03:31:44.608Z,7.11
2018-09-26T03:32:54.775Z,7.11
2018-09-26T03:34:04.544Z,7.06
2018-09-26T03:35:14.480Z,7.02
2018-09-26T03:36:24.622Z,7.06
2018-09-26T03:37:35.028Z,7.05
2018-09-26T03:38:45.312Z,7.1
2018-09-26T03:39:55.460Z,7.15
2018-09-26T03:41:05.320Z,7.11
2018-09-26T03:42:15.500Z,7.02
2018-09-26T03:43:25.623Z,7.06
2018-09-26T03:44:35.844Z,7.03
2018-09-26T03:45:46.047Z,7.03
2018-09-26T03:46:56.304Z,7.02
2018-09-26T03:48:06.515Z,6.9
2018-09-26T03:49:16.433Z,6.92
2018-09-26T03:50:26.538Z,6.93
2018-09-26T03:51:36.711Z,6.93
2018-09-26T03:52:46.944Z,6.93
2018-09-26T03:53:57.188Z,6.93
2018-09-26T03:55:07.406Z,6.9
2018-09-26T03:56:17.316Z,6.85
2018-09-26T03:57:27.433Z,6.87
2018-09-26T03:58:37.541Z,6.85
2018-09-26T03:59:47.434Z,6.87
2018-09-26T04:00:57.589Z,6.81
2018-09-26T04:02:07.777Z,6.85
2018-09-26T04:03:17.746Z,6.81
2018-09-26T04:04:27.911Z,6.82
2018-09-26T04:05:38.038Z,6.69
2018-09-26T04:06:48.195Z,6.75
2018-09-26T04:07:58.361Z,6.66
2018-09-26T04:09:08.557Z,6.62
2018-09-26T04:10:18.768Z,6.63
2018-09-26T04:11:28.897Z,6.54
2018-09-26T04:12:38.953Z,6.54
2018-09-26T04:13:49.718Z,6.56
2018-09-26T04:14:59.617Z,6.48
2018-09-26T04:16:09.905Z,6.46
2018-09-26T04:17:20.139Z,6.52
2018-09-26T04:18:30.382Z,6.46
2018-09-26T04:19:40.547Z,6.46
2018-09-26T04:20:50.784Z,6.31
2018-09-26T04:22:01.138Z,6.28
2018-09-26T04:23:11.273Z,6.35
2018-09-26T04:24:21.417Z,6.35
2018-09-26T04:25:31.627Z,6.16
2018-09-26T04:26:42.282Z,6.16
2018-09-26T04:27:53.621Z,6.14
2018-09-26T04:29:03.873Z,6.12
2018-09-26T04:30:14.085Z,6.08
2018-09-26T04:31:24.493Z,6.06
2018-09-26T04:32:34.910Z,6.05
2018-09-26T04:33:46.095Z,6.11
2018-09-26T04:34:56.492Z,6.16
2018-09-26T04:36:06.348Z,6.19
2018-09-26T04:37:16.487Z,6.16
2018-09-26T04:38:26.733Z,6.12
2018-09-26T04:39:37.125Z,6.16
2018-09-26T04:40:47.344Z,6.16
2018-09-26T04:41:57.480Z,6.06
2018-09-26T04:43:07.419Z,6.06
2018-09-26T04:44:17.772Z,6.09
2018-09-26T04:45:27.964Z,6.06
2018-09-26T04:46:38.216Z,6.05
2018-09-26T04:47:48.393Z,6.02
2018-09-26T04:48:58.551Z,5.99
2018-09-26T04:50:08.732Z,5.99
2018-09-26T04:51:18.609Z,6.01
2018-09-26T04:52:28.758Z,5.99
2018-09-26T04:53:38.932Z,6.05
2018-09-26T04:54:49.116Z,5.9
2018-09-26T04:55:59.266Z,5.9
2018-09-26T04:57:09.348Z,5.88
2018-09-26T04:58:19.903Z,5.86
2018-09-26T04:59:29.818Z,5.86
2018-09-26T05:00:39.937Z,5.69
2018-09-26T05:01:50.107Z,5.86
2018-09-26T05:03:00.054Z,5.79
2018-09-26T05:04:10.169Z,5.79
2018-09-26T05:05:20.279Z,5.75
2018-09-26T05:06:30.437Z,5.67
2018-09-26T05:07:40.631Z,5.69
2018-09-26T05:08:50.555Z,5.71
2018-09-26T05:10:00.759Z,5.71
2018-09-26T05:11:10.949Z,5.65
2018-09-26T05:12:21.094Z,5.69
2018-09-26T05:13:31.352Z,5.75
2018-09-26T05:14:41.738Z,5.65
2018-09-26T05:15:52.084Z,5.71
2018-09-26T05:17:02.254Z,5.65
2018-09-26T05:18:12.662Z,5.69
2018-09-26T05:19:22.921Z,5.72
2018-09-26T05:20:33.050Z,5.67
2018-09-26T05:21:43.206Z,5.71
2018-09-26T05:22:53.676Z,5.71
2018-09-26T05:24:03.934Z,5.67
2018-09-26T05:25:14.063Z,5.67
2018-09-26T05:26:24.212Z,5.72
2018-09-26T05:27:34.446Z,5.72
2018-09-26T05:28:44.633Z,5.74
2018-09-26T05:29:55.051Z,5.68
2018-09-26T05:31:07.061Z,5.77
2018-09-26T05:32:17.189Z,5.79
2018-09-26T05:33:27.322Z,5.83
2018-09-26T05:34:37.452Z,5.88
2018-09-26T05:35:47.599Z,5.88
2018-09-26T05:36:57.771Z,5.82
2018-09-26T05:38:07.586Z,5.82
2018-09-26T05:39:17.470Z,5.93
2018-09-26T05:40:27.586Z,5.91
2018-09-26T05:41:37.842Z,5.94
2018-09-26T05:42:48.187Z,5.99
2018-09-26T05:43:58.598Z,5.96
2018-09-26T05:45:08.767Z,6.08
2018-09-26T05:46:19.150Z,6.01
2018-09-26T05:47:29.291Z,6.11
2018-09-26T05:48:39.469Z,6.09
2018-09-26T05:49:49.699Z,6.19
2018-09-26T05:50:59.841Z,6.26
2018-09-26T05:52:10.072Z,6.23
2018-09-26T05:53:20.143Z,6.26
2018-09-26T05:54:30.590Z,6.28
2018-09-26T05:55:40.802Z,6.35
2018-09-26T05:56:50.663Z,6.31
2018-09-26T05:58:00.517Z,6.3
2018-09-26T05:59:10.726Z,6.31
2018-09-26T06:00:20.606Z,6.31
2018-09-26T06:01:30.940Z,6.28
2018-09-26T06:02:40.809Z,6.39
2018-09-26T06:03:50.972Z,6.44
2018-09-26T06:05:01.098Z,6.45
2018-09-26T06:06:11.520Z,6.45
2018-09-26T06:07:21.268Z,6.38
2018-09-26T06:08:31.406Z,6.46
2018-09-26T06:09:41.560Z,6.42
2018-09-26T06:10:51.714Z,6.52
2018-09-26T06:12:01.582Z,6.52
2018-09-26T06:13:11.827Z,6.57
2018-09-26T06:14:22.017Z,6.46
2018-09-26T06:15:32.313Z,6.49
2018-09-26T06:16:41.961Z,6.45
2018-09-26T06:17:52.101Z,6.54
2018-09-26T06:19:02.341Z,6.64
2018-09-26T06:20:12.661Z,6.56
2018-09-26T06:21:23.765Z,6.57
2018-09-26T06:22:33.636Z,6.59
2018-09-26T06:23:43.759Z,6.63
2018-09-26T06:24:54.026Z,6.74
2018-09-26T06:26:04.215Z,6.75
2018-09-26T06:27:15.304Z,6.77
2018-09-26T06:28:25.579Z,6.79
2018-09-26T06:29:35.734Z,6.89
2018-09-26T06:30:45.605Z,6.87
2018-09-26T06:31:55.989Z,7.06
2018-09-26T06:33:06.165Z,6.99
2018-09-26T06:34:16.282Z,7.1
2018-09-26T06:35:26.424Z,7.03
2018-09-26T06:36:36.097Z,7.11
2018-09-26T06:37:46.310Z,7.22
2018-09-26T06:38:56.521Z,7.26
2018-09-26T06:40:06.736Z,7.29
2018-09-26T06:41:16.909Z,7.47
2018-09-26T06:42:27.141Z,7.48
2018-09-26T06:43:37.285Z,7.56
2018-09-26T06:44:47.400Z,7.69
2018-09-26T06:45:57.729Z,7.77
2018-09-26T06:47:07.854Z,7.8
2018-09-26T06:48:17.975Z,7.79
2018-09-26T06:49:28.115Z,7.85
2018-09-26T06:50:38.304Z,7.88
2018-09-26T06:51:48.454Z,7.9
2018-09-26T06:52:58.663Z,8.02
2018-09-26T06:54:09.038Z,8.09
2018-09-26T06:55:19.228Z,8.02
2018-09-26T06:56:29.116Z,7.99
2018-09-26T06:57:39.257Z,8.03
2018-09-26T06:58:49.380Z,8.02
2018-09-26T06:59:59.557Z,8.1
2018-09-26T07:01:09.880Z,8.15
2018-09-26T07:02:20.075Z,8.16
2018-09-26T07:03:30.236Z,8.16
2018-09-26T07:04:40.518Z,8.3
2018-09-26T07:05:50.703Z,8.31
2018-09-26T07:07:01.122Z,8.31
2018-09-26T07:08:11.263Z,8.42
2018-09-26T07:09:21.416Z,8.34
2018-09-26T07:10:31.633Z,8.5
2018-09-26T07:11:41.823Z,8.5
2018-09-26T07:12:52.053Z,8.5
2018-09-26T07:14:02.343Z,8.53
2018-09-26T07:15:12.541Z,8.61
2018-09-26T07:16:22.710Z,8.7
2018-09-26T07:17:32.596Z,8.84
2018-09-26T07:18:42.721Z,9
2018-09-26T07:19:52.873Z,9.01
2018-09-26T07:21:03.033Z,9
2018-09-26T07:22:13.270Z,9.11
2018-09-26T07:23:23.464Z,9.12
2018-09-26T07:24:33.677Z,9.22
2018-09-26T07:25:43.789Z,9.3
2018-09-26T07:26:54.004Z,9.35
2018-09-26T07:28:04.121Z,9.42
2018-09-26T07:29:14.261Z,9.53
2018-09-26T07:30:24.481Z,9.62
2018-09-26T07:31:34.981Z,9.8
2018-09-26T07:32:45.317Z,9.89
2018-09-26T07:33:55.468Z,10.13
2018-09-26T07:35:05.609Z,10.3
2018-09-26T07:36:15.747Z,10.33
2018-09-26T07:37:25.913Z,10.43
2018-09-26T07:38:36.324Z,10.59
2018-09-26T07:39:46.586Z,10.75
2018-09-26T07:40:56.489Z,10.9
2018-09-26T07:42:06.655Z,11.06
2018-09-26T07:43:16.833Z,11.15
2018-09-26T07:44:27.000Z,11.24
2018-09-26T07:45:37.659Z,11.42
2018-09-26T07:46:48.139Z,11.91
2018-09-26T07:47:58.295Z,12.6
2018-09-26T07:49:08.216Z,13.12
2018-09-26T07:50:18.158Z,13.94
2018-09-26T07:51:28.120Z,14.39
2018-09-26T07:52:38.243Z,14.93
2018-09-26T07:53:48.367Z,15.36
2018-09-26T07:54:58.259Z,15.79
2018-09-26T07:56:08.428Z,16.28
2018-09-26T07:57:18.585Z,16.83
2018-09-26T07:58:28.766Z,17.39
2018-09-26T07:59:38.644Z,17.87
2018-09-26T08:00:48.825Z,18.32
2018-09-26T08:01:58.986Z,18.52
2018-09-26T08:03:09.391Z,18.59
2018-09-26T08:04:19.540Z,18.56
2018-09-26T08:05:29.672Z,18.42
2018-09-26T08:06:39.827Z,18.4
2018-09-26T08:07:49.732Z,18.46
2018-09-26T08:08:59.860Z,18.5
2018-09-26T08:10:10.052Z,18.52
2018-09-26T08:11:20.749Z,18.38
2018-09-26T08:12:31.274Z,18.37
2018-09-26T08:13:41.414Z,18.26
2018-09-26T08:14:51.561Z,18.41
2018-09-26T08:16:01.680Z,18.52
2018-09-26T08:17:11.678Z,18.53
2018-09-26T08:18:22.145Z,18.56
2018-09-26T08:19:32.350Z,18.42
2018-09-26T08:20:42.261Z,18.12
2018-09-26T08:21:52.402Z,18.1
2018-09-26T08:23:02.570Z,18.1
2018-09-26T08:24:14.055Z,18.16
2018-09-26T08:25:24.584Z,18.34
2018-09-26T08:26:34.720Z,18.46
2018-09-26T08:27:44.526Z,18.52
2018-09-26T08:28:54.656Z,18.42
2018-09-26T08:30:05.210Z,18.4
2018-09-26T08:31:15.414Z,18.19
2018-09-26T08:32:25.573Z,17.94
2018-09-26T08:33:35.462Z,17.57
2018-09-26T08:34:45.610Z,17.42
2018-09-26T08:35:55.893Z,17.49
2018-09-26T08:37:06.099Z,17.39
2018-09-26T08:38:16.235Z,17.38
2018-09-26T08:39:26.134Z,17.45
2018-09-26T08:40:36.301Z,17.72
2018-09-26T08:41:46.456Z,17.77
2018-09-26T08:42:56.711Z,17.92
2018-09-26T08:44:07.147Z,18
2018-09-26T08:45:17.073Z,17.95
2018-09-26T08:46:27.333Z,17.87
2018-09-26T08:47:37.541Z,17.75
2018-09-26T08:48:47.683Z,17.58
2018-09-26T08:49:59.157Z,17.46
2018-09-26T08:51:09.291Z,17.31
2018-09-26T08:52:19.423Z,17.02
2018-09-26T08:53:29.208Z,16.84
2018-09-26T08:54:39.424Z,16.43
2018-09-26T08:55:49.682Z,16.19
2018-09-26T08:57:00.817Z,15.84
2018-09-26T08:58:11.083Z,15.63
2018-09-26T08:59:21.245Z,15.36
2018-09-26T09:00:31.592Z,15.25
2018-09-26T09:01:41.831Z,15.35
2018-09-26T09:02:52.010Z,15.25
2018-09-26T09:04:02.169Z,15.15
2018-09-26T09:05:12.125Z,15.03
2018-09-26T09:06:22.700Z,15.05
2018-09-26T09:07:32.893Z,15.11
2018-09-26T09:08:43.065Z,15.23
2018-09-26T09:09:53.216Z,15.38
2018-09-26T09:11:03.349Z,15.57
2018-09-26T09:12:13.519Z,15.54
2018-09-26T09:13:23.640Z,15.66
2018-09-26T09:14:34.158Z,15.79
2018-09-26T09:15:44.463Z,15.95
2018-09-26T09:16:54.590Z,16.28
2018-09-26T09:18:04.867Z,16.47
2018-09-26T09:19:15.177Z,16.64
2018-09-26T09:20:25.854Z,16.94
2018-09-26T09:21:35.984Z,16.99
2018-09-26T09:22:46.128Z,17.06
2018-09-26T09:23:56.303Z,17.24
2018-09-26T09:25:06.601Z,17.62
2018-09-26T09:26:16.844Z,17.7
2018-09-26T09:27:27.369Z,17.98
2018-09-26T09:28:38.003Z,18.04
2018-09-26T09:29:48.174Z,18.17
2018-09-26T09:30:59.292Z,18.4
2018-09-26T09:32:09.525Z,18.73
2018-09-26T09:33:19.742Z,18.98
2018-09-26T09:34:30.080Z,19.06
2018-09-26T09:35:40.219Z,19.13
2018-09-26T09:36:50.625Z,19.16
2018-09-26T09:38:01.764Z,19.24
2018-09-26T09:39:11.957Z,19.35
2018-09-26T09:40:22.082Z,19.43
2018-09-26T09:41:31.660Z,19.48
2018-09-26T09:42:41.528Z,19.61
2018-09-26T09:43:51.740Z,19.61
2018-09-26T09:45:02.073Z,19.82
2018-09-26T09:46:11.989Z,19.9
2018-09-26T09:47:22.051Z,19.88
2018-09-26T09:48:32.268Z,19.98
2018-09-26T09:49:42.404Z,20.04
2018-09-26T09:50:52.559Z,20.27
2018-09-26T09:52:02.732Z,20.3
2018-09-26T09:53:13.031Z,20.42
2018-09-26T09:54:23.168Z,20.43
2018-09-26T09:55:33.334Z,20.45
2018-09-26T09:56:43.504Z,20.63
2018-09-26T09:57:53.749Z,20.76
2018-09-26T09:59:03.890Z,21.01
2018-09-26T10:00:14.119Z,21.25
2018-09-26T10:01:24.290Z,21.37
2018-09-26T10:02:34.584Z,21.61
2018-09-26T10:03:45.133Z,21.84
2018-09-26T10:04:55.194Z,21.84
2018-09-26T10:06:04.996Z,21.84
2018-09-26T10:07:15.138Z,21.73
2018-09-26T10:08:25.662Z,21.87
2018-09-26T10:09:35.978Z,22.01
2018-09-26T10:10:46.117Z,22.05
2018-09-26T10:11:56.258Z,22.18
2018-09-26T10:13:06.147Z,22.12
2018-09-26T10:14:16.590Z,22.03
2018-09-26T10:15:27.348Z,21.98
2018-09-26T10:16:37.490Z,21.9
2018-09-26T10:17:47.815Z,21.76
2018-09-26T10:18:57.984Z,21.88
2018-09-26T10:20:08.157Z,21.94
2018-09-26T10:21:18.536Z,22.06
2018-09-26T10:22:28.697Z,22.15
2018-09-26T10:23:38.644Z,22.27
2018-09-26T10:24:49.825Z,22.43
2018-09-26T10:26:00.058Z,22.55
2018-09-26T10:27:11.356Z,22.68
2018-09-26T10:28:21.539Z,22.64
2018-09-26T10:29:31.732Z,22.64
2018-09-26T10:30:41.990Z,22.82
2018-09-26T10:31:52.131Z,22.78
2018-09-26T10:33:01.927Z,22.82
2018-09-26T10:34:12.196Z,22.9
2018-09-26T10:35:22.207Z,22.89
2018-09-26T10:36:32.082Z,22.82
2018-09-26T10:37:42.296Z,22.67
2018-09-26T10:38:52.097Z,22.53
2018-09-26T10:40:02.375Z,22.46
2018-09-26T10:41:12.572Z,22.42
2018-09-26T10:42:22.533Z,22.26
2018-09-26T10:43:32.723Z,22.27
2018-09-26T10:44:42.920Z,22.2
2018-09-26T10:45:53.094Z,22.18
2018-09-26T10:47:03.270Z,22.11
2018-09-26T10:48:13.426Z,22.02
2018-09-26T10:49:23.614Z,21.93
2018-09-26T10:50:33.784Z,21.86
2018-09-26T10:51:44.014Z,21.57
2018-09-26T10:52:54.219Z,21.34
2018-09-26T10:54:04.158Z,21.22
2018-09-26T10:55:14.309Z,21.13
2018-09-26T10:56:24.772Z,20.93
2018-09-26T10:57:35.655Z,20.71
2018-09-26T10:58:45.835Z,20.58
2018-09-26T10:59:56.008Z,20.35
2018-09-26T11:01:06.296Z,20.27
2018-09-26T11:02:16.558Z,20.01
2018-09-26T11:03:26.932Z,19.82
2018-09-26T11:04:37.059Z,19.65
2018-09-26T11:05:47.221Z,19.45
2018-09-26T11:06:57.390Z,19.3
2018-09-26T11:08:07.346Z,19.19
2018-09-26T11:09:17.648Z,19
2018-09-26T11:10:27.865Z,18.8
2018-09-26T11:11:37.779Z,18.63
2018-09-26T11:12:48.572Z,18.5
2018-09-26T11:13:58.798Z,18.32
2018-09-26T11:15:09.127Z,18.09
2018-09-26T11:16:19.467Z,18
2018-09-26T11:17:29.495Z,17.91
2018-09-26T11:18:39.846Z,17.76
2018-09-26T11:19:50.081Z,17.58
2018-09-26T11:21:00.957Z,17.46
2018-09-26T11:22:11.162Z,17.54
2018-09-26T11:23:21.705Z,17.58
2018-09-26T11:24:31.870Z,17.6
2018-09-26T11:25:41.780Z,17.72
2018-09-26T11:26:51.801Z,17.89
2018-09-26T11:28:01.448Z,17.98
2018-09-26T11:29:11.341Z,18.15
2018-09-26T11:30:21.471Z,18.22
2018-09-26T11:31:31.590Z,18.37
2018-09-26T11:32:41.821Z,18.55
2018-09-26T11:33:52.289Z,18.67
2018-09-26T11:35:02.767Z,18.82
2018-09-26T11:36:13.027Z,18.95
2018-09-26T11:37:23.164Z,19.13
2018-09-26T11:38:33.363Z,19.15
2018-09-26T11:39:43.652Z,19.33
2018-09-26T11:40:53.817Z,19.56
2018-09-26T11:42:04.039Z,19.74
2018-09-26T11:43:14.452Z,19.89
2018-09-26T11:44:24.840Z,20.14
2018-09-26T11:45:35.564Z,20.21
2018-09-26T11:46:45.715Z,20.34
2018-09-26T11:47:55.849Z,20.3
2018-09-26T11:49:06.019Z,20.17
2018-09-26T11:50:16.346Z,20.08
2018-09-26T11:51:26.479Z,20.11
2018-09-26T11:52:36.647Z,20.31
2018-09-26T11:53:46.589Z,20.3
2018-09-26T11:54:56.617Z,20.45
2018-09-26T11:56:06.556Z,20.64
2018-09-26T11:57:16.489Z,20.68
2018-09-26T11:58:26.975Z,20.73
2018-09-26T11:59:37.383Z,20.85
2018-09-26T12:00:47.644Z,20.82
2018-09-26T12:01:57.864Z,20.78
2018-09-26T12:03:08.064Z,20.54
2018-09-26T12:04:18.492Z,20.49
2018-09-26T12:05:28.870Z,20.34
2018-09-26T12:06:39.446Z,20.31
2018-09-26T12:07:49.401Z,20.2
2018-09-26T12:08:59.728Z,20.12
2018-09-26T12:10:10.073Z,20.05
2018-09-26T12:11:20.370Z,20
2018-09-26T12:12:30.762Z,20.05
2018-09-26T12:13:41.136Z,20.3
2018-09-26T12:14:51.221Z,20.38
2018-09-26T12:16:01.438Z,20.45
2018-09-26T12:17:11.777Z,20.54
2018-09-26T12:18:22.110Z,20.64
2018-09-26T12:19:32.902Z,20.73
2018-09-26T12:20:43.056Z,20.72
2018-09-26T12:21:53.718Z,20.63
2018-09-26T12:23:03.832Z,20.71
2018-09-26T12:24:14.356Z,20.72
2018-09-26T12:25:25.048Z,20.78
2018-09-26T12:26:35.259Z,20.75
2018-09-26T12:27:45.494Z,20.76
2018-09-26T12:28:55.928Z,20.79
2018-09-26T12:30:07.257Z,20.57
2018-09-26T12:31:17.510Z,20.53
2018-09-26T12:32:27.652Z,20.46
2018-09-26T12:33:38.117Z,20.49
2018-09-26T12:34:47.641Z,20.53
2018-09-26T12:35:58.164Z,20.54
2018-09-26T12:37:08.443Z,20.46
2018-09-26T12:38:18.725Z,20.36
2018-09-26T12:39:28.940Z,20.08
2018-09-26T12:40:39.140Z,19.98
2018-09-26T12:41:49.371Z,19.95
2018-09-26T12:42:59.699Z,19.89
2018-09-26T12:44:09.842Z,19.82
2018-09-26T12:45:52.133Z,19.71
2018-09-26T12:47:01.760Z,19.71
2018-09-26T12:48:12.452Z,19.56
2018-09-26T12:49:22.529Z,19.4
2018-09-26T12:50:32.522Z,19.33
2018-09-26T12:51:42.691Z,19.13
2018-09-26T12:52:52.839Z,19.03
2018-09-26T12:54:03.905Z,19.06
2018-09-26T12:55:14.446Z,19.03
2018-09-26T12:56:24.584Z,18.94
2018-09-26T12:57:34.755Z,18.8
2018-09-26T12:58:44.969Z,18.62
2018-09-26T12:59:56.223Z,18.59
2018-09-26T13:01:05.892Z,18.6
2018-09-26T13:02:16.224Z,18.62
2018-09-26T13:03:26.673Z,18.59
2018-09-26T13:04:36.837Z,18.67
2018-09-26T13:05:47.260Z,18.75
2018-09-26T13:06:57.076Z,18.84
2018-09-26T13:08:07.511Z,18.86
2018-09-26T13:09:17.885Z,18.87
2018-09-26T13:10:28.245Z,18.9
2018-09-26T13:11:38.221Z,18.78
2018-09-26T13:12:48.143Z,18.87
2018-09-26T13:13:58.620Z,19
2018-09-26T13:15:08.810Z,18.97
2018-09-26T13:16:18.460Z,18.84
2018-09-26T13:17:28.738Z,18.62
2018-09-26T13:18:38.922Z,18.49
2018-09-26T13:19:48.810Z,18.46
2018-09-26T13:20:58.978Z,18.41
2018-09-26T13:22:09.390Z,18.34
2018-09-26T13:23:19.384Z,18.28
2018-09-26T13:24:29.729Z,18.2
2018-09-26T13:25:40.096Z,18.16
2018-09-26T13:26:50.394Z,18.16
2018-09-26T13:28:00.593Z,18.16
2018-09-26T13:29:10.779Z,18.09
2018-09-26T13:30:20.650Z,18
2018-09-26T13:31:31.068Z,17.97
2018-09-26T13:32:41.214Z,17.75
2018-09-26T13:33:50.999Z,17.75
2018-09-26T13:35:01.152Z,17.64
2018-09-26T13:36:11.392Z,17.58
2018-09-26T13:37:21.920Z,17.55
2018-09-26T13:38:32.095Z,17.52
2018-09-26T13:39:42.408Z,17.67
2018-09-26T13:40:52.741Z,17.67
2018-09-26T13:42:02.933Z,17.91
2018-09-26T13:43:13.200Z,18
2018-09-26T13:44:23.486Z,17.98
2018-09-26T13:45:33.950Z,18.1
2018-09-26T13:46:44.396Z,18.1
2018-09-26T13:47:55.065Z,18.1
2018-09-26T13:49:05.222Z,18.16
2018-09-26T13:50:15.236Z,18.09
2018-09-26T13:51:25.788Z,18.04
2018-09-26T13:52:35.966Z,17.95
2018-09-26T13:53:47.304Z,17.92
2018-09-26T13:54:57.690Z,17.98
2018-09-26T13:56:07.558Z,17.83
2018-09-26T13:57:17.527Z,17.95
2018-09-26T13:58:27.996Z,17.87
2018-09-26T13:59:38.409Z,17.94
2018-09-26T14:00:48.068Z,17.95
2018-09-26T14:01:57.944Z,17.85
2018-09-26T14:03:07.869Z,17.86
2018-09-26T14:04:18.216Z,17.87
2018-09-26T14:05:29.553Z,17.85
2018-09-26T14:06:39.776Z,17.73
2018-09-26T14:07:49.700Z,17.73
2018-09-26T14:08:59.887Z,17.73
2018-09-26T14:10:10.154Z,17.72
2018-09-26T14:11:20.073Z,17.75
2018-09-26T14:12:30.577Z,17.68
2018-09-26T14:13:40.855Z,17.61
2018-09-26T14:14:51.050Z,17.55
2018-09-26T14:16:01.330Z,17.52
2018-09-26T14:17:11.738Z,17.67
2018-09-26T14:18:22.399Z,17.58
2018-09-26T14:19:33.078Z,17.62
2018-09-26T14:20:43.262Z,17.65
2018-09-26T14:21:53.447Z,17.65
2018-09-26T14:23:04.196Z,17.64
2018-09-26T14:24:14.613Z,17.64
2018-09-26T14:25:24.814Z,17.62
2018-09-26T14:26:34.962Z,17.54
2018-09-26T14:27:45.128Z,17.47
2018-09-26T14:28:55.276Z,17.49
2018-09-26T14:30:05.436Z,17.38
2018-09-26T14:31:16.080Z,17.31
2018-09-26T14:32:26.501Z,17.23
2018-09-26T14:33:36.555Z,17.06
2018-09-26T14:34:46.858Z,17.09
2018-09-26T14:35:57.048Z,17.17
2018-09-26T14:37:08.244Z,17.19
2018-09-26T14:38:18.600Z,17.09
2018-09-26T14:39:29.683Z,17.21
2018-09-26T14:40:41.295Z,17.16
2018-09-26T14:41:51.475Z,17.21
2018-09-26T14:43:01.616Z,17.19
2018-09-26T14:44:11.958Z,17.21
2018-09-26T14:45:22.569Z,17.21
2018-09-26T14:46:33.237Z,17.27
2018-09-26T14:47:43.433Z,17.21
2018-09-26T14:48:53.733Z,17.16
2018-09-26T14:50:03.690Z,17.12
2018-09-26T14:51:13.903Z,17.06
2018-09-26T14:52:24.075Z,17.09
2018-09-26T14:53:34.280Z,17.06
2018-09-26T14:54:44.556Z,17.14
2018-09-26T14:55:54.713Z,17.09
2018-09-26T14:57:04.882Z,17.08
2018-09-26T14:58:15.538Z,17.09
2018-09-26T14:59:25.508Z,17.21
2018-09-26T15:00:35.661Z,17.09
2018-09-26T15:01:45.801Z,17.11
2018-09-26T15:02:55.982Z,17.17
2018-09-26T15:04:06.313Z,17.19
2018-09-26T15:05:16.835Z,17.08
2018-09-26T15:06:27.124Z,16.99
2018-09-26T15:07:37.295Z,16.99
2018-09-26T15:08:47.853Z,16.94
2018-09-26T15:09:58.301Z,17.02
2018-09-26T15:11:08.502Z,16.9
2018-09-26T15:12:18.960Z,16.93
2018-09-26T15:13:29.356Z,17.02
2018-09-26T15:14:39.530Z,16.98
2018-09-26T15:15:49.882Z,17.08
2018-09-26T15:17:00.172Z,17.08
2018-09-26T15:18:10.444Z,16.98
2018-09-26T15:19:20.693Z,17.05
2018-09-26T15:20:31.370Z,17.14
2018-09-26T15:21:41.662Z,17.06
2018-09-26T15:22:51.672Z,17.02
2018-09-26T15:24:01.949Z,17.01